Terminal Aerodrome Forecast
Issued by NWS Corpus Christi, TX

Home | Current Version | Previous Version | Text Only | Print | Product List | Glossary On
Versions: 1 2 3 4 5 6 7 8 9 10 11 12 13 14
000
FTUS44 KCRP 040527
TAFVCT
TAF
KVCT 040527Z 0406/0506 15004KT P6SM FEW015
     FM041000 00000KT 4SM BR SCT008
      TEMPO 0411/0413 2SM BR BKN008
     FM041400 19008KT P6SM VCSH SCT025 BKN060
      TEMPO 0416/0420 VRB15G25KT 5SM TSRA BR OVC025CB
     FM042000 15013G19KT P6SM VCTS SCT040CB BKN250
     FM050000 15010KT P6SM FEW025 SCT250=

USA.gov is the U.S. government's official web portal to all federal, state and local government web resources and services.